createdAt,value
2017-12-25T07:25:09.369Z,1.58
2017-12-25T07:27:36.968Z,1.92
2017-12-25T07:30:04.559Z,1.70
2017-12-25T07:32:32.392Z,1.60
2017-12-25T07:34:59.988Z,1.87
2017-12-25T07:37:27.585Z,1.60
2017-12-25T07:39:55.945Z,1.60
2017-12-25T07:42:23.529Z,2.40
2017-12-25T07:44:51.875Z,2.17
2017-12-25T07:47:19.468Z,1.92
2017-12-25T07:49:47.883Z,2.25
2017-12-25T07:52:15.473Z,1.52
2017-12-25T07:54:43.057Z,1.60
2017-12-25T07:57:11.420Z,3.05
2017-12-25T07:59:39.016Z,2.10
2017-12-25T08:02:06.604Z,2.22
2017-12-25T08:04:34.228Z,1.85
2017-12-25T08:07:01.813Z,2.75
2017-12-25T08:09:29.444Z,4.32
2017-12-25T08:11:57.892Z,2.50
2017-12-25T08:14:25.524Z,1.90
2017-12-25T08:16:53.225Z,2.40
2017-12-25T08:19:20.876Z,8.02
2017-12-25T08:21:48.548Z,3.12
2017-12-25T08:24:16.457Z,4.68
2017-12-25T08:26:44.059Z,11.90
2017-12-25T08:29:11.644Z,11.07
2017-12-25T08:31:39.236Z,10.13
2017-12-25T08:34:07.072Z,3.28
2017-12-25T08:36:35.432Z,11.10
2017-12-25T08:39:03.056Z,28.75
2017-12-25T08:41:30.654Z,13.05
2017-12-25T08:43:58.244Z,4.70
2017-12-25T08:46:25.879Z,4.15
2017-12-25T08:49:00.896Z,2.90
2017-12-25T08:51:28.502Z,3.30
2017-12-25T08:53:56.132Z,4.12
2017-12-25T08:56:24.505Z,3.78
2017-12-25T08:58:52.089Z,3.28
2017-12-25T09:01:19.745Z,6.32
2017-12-25T09:03:47.344Z,7.30
2017-12-25T09:06:14.939Z,5.90
2017-12-25T09:08:42.572Z,6.22
2017-12-25T09:11:10.169Z,3.28
2017-12-25T09:13:38.527Z,5.00
2017-12-25T09:16:07.116Z,6.37
2017-12-25T09:18:34.723Z,7.72
2017-12-25T09:21:02.308Z,5.25
2017-12-25T09:23:29.905Z,5.87
2017-12-25T09:25:58.368Z,3.72
2017-12-25T09:28:25.956Z,5.25
2017-12-25T09:30:54.423Z,4.97
2017-12-25T09:33:23.676Z,4.57
2017-12-25T09:35:51.271Z,5.18
2017-12-25T09:38:18.857Z,6.60
2017-12-25T09:40:47.297Z,7.18
2017-12-25T09:43:14.879Z,6.93
2017-12-25T09:45:46.789Z,7.47
2017-12-25T09:48:19.508Z,4.57
2017-12-25T09:50:47.100Z,5.07
2017-12-25T09:53:14.700Z,9.95
2017-12-25T09:55:42.285Z,8.10
2017-12-25T09:58:10.206Z,10.10
2017-12-25T10:00:37.800Z,8.40
2017-12-25T10:03:05.437Z,9.25
2017-12-25T10:05:33.024Z,7.10
2017-12-25T10:08:00.632Z,9.38
2017-12-25T10:10:28.224Z,7.18
2017-12-25T10:12:55.803Z,6.43
2017-12-25T10:15:23.392Z,7.05
2017-12-25T10:17:51.981Z,8.32
2017-12-25T10:20:19.632Z,6.78
2017-12-25T10:22:47.216Z,8.15
2017-12-25T10:25:14.804Z,5.55
2017-12-25T10:27:42.391Z,4.90
2017-12-25T10:30:09.977Z,7.25
2017-12-25T10:32:38.332Z,7.47
2017-12-25T10:35:05.968Z,6.75
2017-12-25T10:37:33.555Z,4.82
2017-12-25T10:40:02.760Z,5.30
2017-12-25T10:42:30.380Z,4.57
2017-12-25T10:44:57.981Z,7.97
2017-12-25T10:47:26.345Z,4.75
2017-12-25T10:49:53.944Z,5.37
2017-12-25T10:52:21.532Z,5.28
2017-12-25T10:54:49.144Z,7.35
2017-12-25T10:57:16.731Z,6.10
2017-12-25T10:59:44.320Z,6.43
2017-12-25T11:02:28.681Z,10.35
2017-12-25T11:04:56.273Z,5.85
2017-12-25T11:07:28.836Z,6.32
2017-12-25T11:09:59.551Z,6.80
2017-12-25T11:15:12.653Z,5.95
2017-12-25T11:17:40.304Z,9.68
2017-12-25T11:20:09.962Z,7.62
2017-12-25T11:22:37.612Z,6.75
2017-12-25T11:25:05.287Z,7.20
2017-12-25T11:27:33.827Z,7.07
2017-12-25T11:30:02.746Z,6.12
2017-12-25T11:32:30.388Z,9.32
2017-12-25T11:34:58.017Z,5.85
2017-12-25T11:37:25.617Z,7.25
2017-12-25T11:39:56.705Z,8.57
2017-12-25T11:42:25.065Z,8.75
2017-12-25T11:44:52.657Z,6.32
2017-12-25T11:47:24.076Z,7.05
2017-12-25T11:49:51.673Z,6.22
2017-12-25T11:52:19.274Z,6.12
2017-12-25T11:54:46.883Z,6.37
2017-12-25T11:57:14.528Z,7.93
2017-12-25T11:59:43.044Z,8.57
2017-12-25T12:02:10.786Z,6.10
2017-12-25T12:04:38.388Z,10.00
2017-12-25T12:07:05.985Z,7.20
2017-12-25T12:09:33.712Z,6.07
2017-12-25T12:12:01.332Z,5.15
2017-12-25T12:14:28.993Z,5.35
2017-12-25T12:16:56.592Z,6.93
2017-12-25T12:19:27.749Z,7.12
2017-12-25T12:21:55.352Z,6.53
2017-12-25T12:24:22.968Z,5.93
2017-12-25T12:26:50.573Z,6.12
2017-12-25T12:29:18.184Z,5.57
2017-12-25T12:31:45.785Z,6.35
2017-12-25T12:34:14.389Z,10.13
2017-12-25T12:36:42.062Z,9.55
2017-12-25T12:39:09.713Z,12.80
2017-12-25T12:41:37.313Z,10.27
2017-12-25T12:44:04.907Z,11.05
2017-12-25T12:46:33.273Z,10.48
2017-12-25T12:49:00.872Z,9.50
2017-12-25T12:51:28.470Z,10.32
2017-12-25T12:53:56.060Z,8.63
2017-12-25T12:56:23.696Z,9.82
2017-12-25T12:58:51.296Z,8.55
2017-12-25T13:01:18.892Z,8.30
2017-12-25T13:03:56.528Z,8.88
2017-12-25T13:06:24.136Z,8.20
2017-12-25T13:08:51.736Z,10.82
2017-12-25T13:11:19.340Z,10.63
2017-12-25T13:13:46.948Z,8.48
2017-12-25T13:16:15.714Z,10.93
2017-12-25T13:19:01.372Z,8.80
2017-12-25T13:21:31.384Z,14.35
2017-12-25T13:23:59.528Z,8.70
2017-12-25T13:26:27.132Z,8.35
2017-12-25T13:28:54.729Z,12.02
2017-12-25T13:31:22.317Z,8.23
2017-12-25T13:33:49.924Z,10.63
2017-12-25T13:36:17.844Z,10.85
2017-12-25T13:38:46.411Z,11.35
2017-12-25T13:41:14.976Z,11.35
2017-12-25T13:43:42.620Z,10.30
2017-12-25T13:46:10.216Z,12.18
2017-12-25T13:48:38.889Z,9.75
2017-12-25T13:51:06.857Z,12.82
2017-12-25T13:53:34.660Z,17.42
2017-12-25T13:56:04.407Z,13.07
2017-12-25T13:58:32.092Z,14.63
2017-12-25T14:01:00.196Z,15.70
2017-12-25T14:03:28.105Z,13.30
2017-12-25T14:05:55.769Z,14.23
2017-12-25T14:08:23.777Z,14.13
2017-12-25T14:10:51.400Z,15.80
2017-12-25T14:13:19.228Z,16.33
2017-12-25T14:15:47.429Z,21.12
2017-12-25T14:18:15.368Z,15.10
2017-12-25T14:20:42.959Z,17.70
2017-12-25T14:23:11.362Z,14.52
2017-12-25T14:25:39.257Z,17.33
2017-12-25T14:28:06.880Z,20.08
2017-12-25T14:30:34.520Z,20.30
2017-12-25T14:33:02.304Z,19.33
2017-12-25T14:35:30.885Z,21.10
2017-12-25T14:38:00.932Z,15.90
2017-12-25T14:40:28.567Z,17.62
2017-12-25T14:42:56.548Z,17.12
2017-12-25T14:45:24.192Z,12.88
2017-12-25T14:47:57.281Z,14.45
2017-12-25T14:50:24.885Z,11.90
2017-12-25T14:52:54.609Z,16.02
2017-12-25T14:55:22.896Z,15.40
2017-12-25T14:57:51.712Z,18.20
2017-12-25T15:00:19.341Z,17.87
2017-12-25T15:02:46.946Z,18.80
2017-12-25T15:05:15.368Z,15.25
2017-12-25T15:07:43.040Z,12.93
2017-12-25T15:10:12.639Z,11.55
2017-12-25T15:12:40.248Z,11.02
2017-12-25T15:15:07.845Z,10.88
2017-12-25T15:17:35.479Z,16.27
2017-12-25T15:20:07.023Z,14.02
2017-12-25T15:22:37.348Z,17.62
2017-12-25T15:25:05.192Z,10.40
2017-12-25T15:27:32.980Z,11.40
2017-12-25T15:30:01.585Z,15.73
2017-12-25T15:32:32.165Z,12.85
2017-12-25T15:34:59.921Z,16.50
2017-12-25T15:37:28.653Z,17.50
2017-12-25T15:39:57.060Z,13.88
2017-12-25T15:42:26.183Z,12.65
2017-12-25T15:44:54.024Z,12.00
2017-12-25T15:47:22.664Z,14.68
2017-12-25T15:49:51.428Z,15.77
2017-12-25T15:52:19.891Z,12.88
2017-12-25T15:54:56.092Z,16.62
2017-12-25T15:57:25.585Z,18.55
2017-12-25T15:59:55.908Z,15.75
2017-12-25T16:02:24.404Z,15.23
2017-12-25T16:04:54.670Z,13.83
2017-12-25T16:07:30.506Z,16.08
2017-12-25T16:09:58.743Z,14.20
2017-12-25T16:12:27.021Z,14.07
2017-12-25T16:14:55.250Z,15.05
2017-12-25T16:17:23.478Z,14.80
2017-12-25T16:19:51.801Z,16.35
2017-12-25T16:22:20.026Z,15.25
2017-12-25T16:24:48.240Z,19.52
2017-12-25T16:27:20.342Z,12.93
2017-12-25T16:29:48.580Z,15.88
2017-12-25T16:32:16.868Z,12.88
2017-12-25T16:34:45.141Z,13.65
2017-12-25T16:37:13.405Z,9.73
2017-12-25T16:39:41.591Z,10.30
2017-12-25T16:42:09.933Z,12.07
2017-12-25T16:44:38.177Z,12.52
2017-12-25T16:47:06.513Z,13.32
2017-12-25T16:49:34.770Z,12.13
2017-12-25T16:52:03.005Z,14.18
2017-12-25T16:54:31.222Z,13.15
2017-12-25T16:56:59.476Z,12.77
2017-12-25T16:59:27.352Z,9.95
2017-12-25T17:01:55.261Z,16.12
2017-12-25T17:04:22.986Z,15.50
2017-12-25T17:06:51.205Z,15.75
2017-12-25T17:09:19.490Z,16.77
2017-12-25T17:11:47.697Z,13.62
2017-12-25T17:14:16.722Z,15.30
2017-12-25T17:16:45.044Z,17.27
2017-12-25T17:19:23.745Z,16.12
2017-12-25T17:21:54.246Z,15.02
2017-12-25T17:24:22.574Z,17.00
2017-12-25T17:32:45.477Z,19.95
2017-12-25T17:35:15.293Z,14.43
2017-12-25T17:37:42.935Z,19.12
2017-12-25T17:40:10.599Z,16.55
2017-12-25T17:42:38.256Z,15.63
2017-12-25T17:45:05.871Z,17.42
2017-12-25T17:47:33.492Z,19.12
2017-12-25T17:50:01.093Z,17.52
2017-12-25T17:52:28.692Z,18.20
2017-12-25T17:54:56.288Z,18.17
2017-12-25T17:57:23.889Z,21.48
2017-12-25T17:59:51.680Z,21.00
2017-12-25T18:02:19.367Z,19.67
2017-12-25T18:04:46.989Z,22.80
2017-12-25T18:07:15.372Z,21.60
2017-12-25T18:09:43.141Z,20.75
2017-12-25T18:12:10.765Z,18.77
2017-12-25T18:14:38.428Z,20.23
2017-12-25T18:17:06.031Z,22.10
2017-12-25T18:19:33.631Z,19.08
2017-12-25T18:22:01.250Z,19.58
2017-12-25T18:24:28.857Z,20.42
2017-12-25T18:26:56.547Z,20.15
2017-12-25T18:29:24.996Z,20.73
2017-12-25T18:31:52.653Z,19.27
2017-12-25T18:34:20.344Z,23.77
2017-12-25T18:36:48.098Z,23.20
2017-12-25T18:39:15.804Z,21.85
2017-12-25T18:41:43.491Z,19.60
2017-12-25T18:44:12.959Z,21.30
2017-12-25T18:46:41.421Z,19.87
2017-12-25T18:49:09.085Z,26.95
2017-12-25T18:51:37.536Z,23.35
2017-12-25T18:54:05.282Z,24.33
2017-12-25T18:56:33.009Z,24.12
2017-12-25T18:59:00.730Z,24.35
2017-12-25T19:01:28.419Z,22.25
2017-12-25T19:03:56.987Z,25.52
2017-12-25T19:06:24.730Z,26.55
2017-12-25T19:08:52.439Z,25.40
2017-12-25T19:11:21.019Z,26.23
2017-12-25T19:13:49.490Z,26.70
2017-12-25T19:16:17.166Z,31.83
2017-12-25T19:18:45.626Z,27.85
2017-12-25T19:21:13.319Z,31.48
2017-12-25T19:23:41.708Z,24.25
2017-12-25T19:26:09.474Z,28.70
2017-12-25T19:28:37.134Z,24.70
2017-12-25T19:31:04.883Z,29.23
2017-12-25T19:33:33.321Z,28.65
2017-12-25T19:36:01.192Z,26.73
2017-12-25T19:38:28.916Z,28.30
2017-12-25T19:40:56.665Z,31.27
2017-12-25T19:43:25.189Z,29.08
2017-12-25T19:45:52.865Z,28.02
2017-12-25T19:48:20.529Z,30.02
2017-12-25T19:50:48.720Z,31.98
2017-12-25T19:53:16.465Z,27.77
2017-12-25T19:55:44.101Z,41.33
2017-12-25T19:58:11.764Z,28.00
2017-12-25T20:00:39.468Z,35.78
2017-12-25T20:03:07.190Z,30.73
2017-12-25T20:05:35.015Z,32.67
2017-12-25T20:08:03.415Z,33.38
2017-12-25T20:10:32.304Z,33.17
2017-12-25T20:13:00.011Z,31.40
2017-12-25T20:15:28.731Z,34.78
2017-12-25T20:17:57.315Z,28.20
2017-12-25T20:20:25.781Z,32.42
2017-12-25T20:22:53.429Z,37.05
2017-12-25T20:25:21.250Z,31.73
2017-12-25T20:27:48.965Z,32.72
2017-12-25T20:30:17.517Z,36.58
2017-12-25T20:32:45.192Z,38.80
2017-12-25T20:35:12.918Z,31.50
2017-12-25T20:37:40.603Z,32.30
2017-12-25T20:40:09.190Z,31.73
2017-12-25T20:42:36.872Z,32.58
2017-12-25T20:45:04.956Z,29.63
2017-12-25T20:47:32.623Z,36.22
2017-12-25T20:50:00.302Z,33.17
2017-12-25T20:52:27.957Z,30.92
2017-12-25T20:54:55.655Z,31.30
2017-12-25T20:57:23.394Z,35.10
2017-12-25T20:59:51.849Z,31.60
2017-12-25T21:02:19.477Z,34.55
2017-12-25T21:04:47.101Z,27.05
2017-12-25T21:07:15.560Z,30.12
2017-12-25T21:09:43.203Z,30.83
2017-12-25T21:12:10.984Z,41.22
2017-12-25T21:14:38.685Z,38.75
2017-12-25T21:17:07.255Z,34.33
2017-12-25T21:19:35.003Z,33.03
2017-12-25T21:22:03.469Z,29.30
2017-12-25T21:24:31.134Z,25.62
2017-12-25T21:26:58.830Z,28.10
2017-12-25T21:29:26.489Z,28.08
2017-12-25T21:31:54.238Z,29.42
2017-12-25T21:34:23.848Z,25.42
2017-12-25T21:36:52.280Z,29.77
2017-12-25T21:39:19.936Z,25.88
2017-12-25T21:41:47.656Z,28.42
2017-12-25T21:44:16.057Z,26.60
2017-12-25T21:46:43.727Z,31.35
2017-12-25T21:49:11.426Z,26.90
2017-12-25T21:51:39.065Z,26.30
2017-12-25T21:54:06.741Z,26.23
2017-12-25T21:56:34.430Z,25.25
2017-12-25T21:59:02.098Z,32.33
2017-12-25T22:01:31.967Z,28.25
2017-12-25T22:04:00.058Z,30.02
2017-12-25T22:06:28.875Z,29.98
2017-12-25T22:08:56.894Z,31.15
2017-12-25T22:11:25.605Z,28.35
2017-12-25T22:13:53.662Z,27.55
2017-12-25T22:16:21.674Z,30.08
2017-12-25T22:18:49.513Z,32.50
2017-12-25T22:21:17.634Z,35.55
2017-12-25T22:23:45.751Z,35.08
2017-12-25T22:26:13.855Z,34.95
2017-12-25T22:28:41.908Z,27.73
2017-12-25T22:31:10.202Z,29.92
2017-12-25T22:33:38.086Z,29.95
2017-12-25T22:36:05.971Z,30.48
2017-12-25T22:38:33.874Z,30.02
2017-12-25T22:41:01.684Z,28.20
2017-12-25T22:43:29.542Z,28.95
2017-12-25T22:45:57.605Z,30.12
2017-12-25T22:48:26.239Z,25.48
2017-12-25T22:50:54.195Z,27.90
2017-12-25T22:53:21.993Z,27.87
2017-12-25T22:55:49.845Z,26.77
2017-12-25T22:58:17.635Z,28.48
2017-12-25T23:00:45.461Z,26.75
2017-12-25T23:03:14.180Z,30.00
2017-12-25T23:05:42.909Z,29.43
2017-12-25T23:08:10.888Z,30.40
2017-12-25T23:10:39.004Z,30.40
2017-12-25T23:13:06.990Z,31.90
2017-12-25T23:15:35.064Z,33.20
2017-12-25T23:18:03.208Z,32.33
2017-12-25T23:20:32.125Z,35.05
2017-12-25T23:23:00.094Z,34.60
2017-12-25T23:25:28.805Z,30.42
2017-12-25T23:27:56.851Z,26.48
2017-12-25T23:30:24.887Z,32.22
2017-12-25T23:32:52.841Z,32.63
2017-12-25T23:35:21.478Z,31.73
2017-12-25T23:37:49.596Z,31.08
2017-12-25T23:40:17.605Z,31.02
2017-12-25T23:42:45.380Z,32.45
2017-12-25T23:45:13.148Z,29.65
2017-12-25T23:47:41.002Z,31.17
2017-12-25T23:50:08.957Z,28.83
2017-12-25T23:52:37.052Z,29.95
2017-12-25T23:55:05.002Z,26.85
2017-12-25T23:57:33.818Z,29.70
